Time;durP1;ratioP1;P1;durP2;ratioP2;P2;SDS_P1;SDS_P2;PMS_P1;PMS_P2;Temp;Humidity;BMP_temperature;BMP_pressure;BME280_temperature;BME280_humidity;BME280_pressure;Samples;Min_cycle;Max_cycle;Signal;HPM_P1;HPM_P2
2023/04/09 00:00:01;;;;;;;37.47;22.27;;;;;;;10.72;52.16;102355.56;5005688;28;97344;-70
2023/04/09 00:02:28;;;;;;;34.40;21.38;;;;;;;10.78;52.05;102344.91;5013048;28;99039;-71
2023/04/09 00:04:54;;;;;;;38.88;22.25;;;;;;;11.26;50.78;102342.59;5015294;28;98880;-70
2023/04/09 00:07:20;;;;;;;40.15;21.92;;;;;;;11.21;50.53;102349.72;5011771;28;96835;-70
2023/04/09 00:09:47;;;;;;;38.70;22.25;;;;;;;11.41;49.70;102342.41;5013469;28;97076;-70
2023/04/09 00:12:14;;;;;;;39.30;22.95;;;;;;;11.44;49.44;102339.69;5014985;28;99296;-71
2023/04/09 00:14:41;;;;;;;36.55;21.50;;;;;;;11.34;49.94;102332.78;5008539;28;99001;-70
2023/04/09 00:17:07;;;;;;;35.55;22.42;;;;;;;11.31;49.72;102338.09;5015643;28;96794;-70
2023/04/09 00:19:34;;;;;;;37.63;21.73;;;;;;;11.44;49.63;102338.81;5002332;28;97397;-70
2023/04/09 00:22:00;;;;;;;33.75;21.17;;;;;;;11.42;50.02;102333.53;5015490;28;99842;-70
2023/04/09 00:24:27;;;;;;;35.35;20.70;;;;;;;11.37;49.98;102335.38;5006269;28;101596;-70
2023/04/09 00:26:53;;;;;;;35.90;21.38;;;;;;;11.28;50.08;102338.16;5013124;28;97051;-71
2023/04/09 00:29:21;;;;;;;33.33;21.23;;;;;;;11.15;50.55;102340.09;5007516;28;96758;-71
2023/04/09 00:31:47;;;;;;;33.65;21.10;;;;;;;11.01;51.64;102343.78;5012930;28;99007;-69
2023/04/09 00:34:14;;;;;;;38.28;21.48;;;;;;;10.75;52.32;102342.34;5006252;28;99198;-71
2023/04/09 00:36:40;;;;;;;36.95;21.63;;;;;;;10.84;52.12;102336.03;5015820;28;96832;-71
2023/04/09 00:39:07;;;;;;;37.25;21.27;;;;;;;10.59;52.69;102338.09;5010895;28;96935;-70
2023/04/09 00:41:33;;;;;;;39.50;21.98;;;;;;;10.63;52.62;102339.78;5010242;28;98946;-70
2023/04/09 00:43:59;;;;;;;41.30;22.65;;;;;;;10.38;52.92;102335.66;5009140;28;99192;-70
2023/04/09 00:46:27;;;;;;;37.75;22.08;;;;;;;10.34;52.49;102342.75;5013511;28;96987;-70
2023/04/09 00:48:53;;;;;;;34.72;20.88;;;;;;;10.06;53.20;102341.19;5009088;28;97182;-71
2023/04/09 00:51:20;;;;;;;38.40;21.60;;;;;;;10.02;53.64;102335.94;5012766;28;99606;-70
2023/04/09 00:53:47;;;;;;;38.10;22.83;;;;;;;9.99;54.23;102339.47;5007938;28;98674;-70
2023/04/09 00:56:16;;;;;;;34.33;21.38;;;;;;;9.98;54.28;102337.72;5012148;28;97898;-70
2023/04/09 00:58:42;;;;;;;36.95;21.50;;;;;;;10.04;54.08;102344.75;5009235;28;96925;-71
2023/04/09 01:01:09;;;;;;;39.38;21.08;;;;;;;9.86;54.65;102346.63;5007995;28;99239;-69
2023/04/09 01:03:37;;;;;;;36.70;22.27;;;;;;;9.82;54.59;102342.25;5015551;28;102028;-70
2023/04/09 01:06:10;;;;;;;37.65;22.42;;;;;;;9.81;54.74;102342.25;5017161;28;97223;-70
2023/04/09 01:08:44;;;;;;;38.40;20.88;;;;;;;9.90;54.48;102345.72;5008297;28;96792;-70
2023/04/09 01:11:20;;;;;;;37.85;22.38;;;;;;;9.96;54.62;102347.44;5010117;28;99051;-70
2023/04/09 01:13:54;;;;;;;36.95;21.30;;;;;;;9.90;54.75;102345.72;5012371;28;98897;-69
2023/04/09 01:16:23;;;;;;;38.15;22.27;;;;;;;9.94;54.78;102350.09;5012189;28;97703;-71
2023/04/09 01:18:58;;;;;;;40.85;23.00;;;;;;;9.85;54.74;102347.50;5012760;28;96911;-71
2023/04/09 01:21:30;;;;;;;37.83;22.17;;;;;;;9.82;54.96;102347.53;5011442;28;99318;-73
2023/04/09 01:24:02;;;;;;;43.95;22.75;;;;;;;9.69;55.83;102352.91;5010253;28;101168;-69
2023/04/09 01:26:45;;;;;;;44.15;23.48;;;;;;;9.69;55.66;102345.88;5013758;28;96916;-71
2023/04/09 01:29:15;;;;;;;40.92;23.45;;;;;;;9.79;55.35;102344.03;5005667;28;99508;-70
2023/04/09 01:31:43;;;;;;;44.50;23.83;;;;;;;9.69;55.32;102345.00;5013389;28;100061;-71
2023/04/09 01:34:11;;;;;;;41.03;24.08;;;;;;;9.53;55.66;102345.06;5009586;28;99054;-70
2023/04/09 01:36:41;;;;;;;41.92;23.65;;;;;;;9.60;55.02;102346.78;5007375;28;96940;-71
2023/04/09 01:39:07;;;;;;;43.00;24.08;;;;;;;9.65;54.89;102344.13;5008748;28;96878;-70
2023/04/09 01:41:35;;;;;;;42.17;23.48;;;;;;;9.44;55.62;102339.00;5015400;28;99218;-69
2023/04/09 01:44:03;;;;;;;42.58;24.23;;;;;;;9.42;55.92;102346.03;5005775;28;98770;-71
2023/04/09 01:46:33;;;;;;;43.53;23.67;;;;;;;9.45;55.75;102340.75;5021425;28;96913;-71
2023/04/09 01:49:00;;;;;;;41.75;23.20;;;;;;;9.39;55.96;102349.53;5005946;27;97610;-71
2023/04/09 01:51:27;;;;;;;40.13;23.63;;;;;;;9.29;56.82;102350.50;5017428;28;98888;-71
2023/04/09 01:53:54;;;;;;;45.17;24.88;;;;;;;9.45;56.62;102351.31;5007850;28;99220;-69
2023/04/09 01:56:20;;;;;;;41.92;24.38;;;;;;;9.36;56.90;102356.63;5011402;28;97264;-70
2023/04/09 01:58:47;;;;;;;40.55;23.50;;;;;;;9.34;57.01;102348.69;5009262;28;98830;-71
2023/04/09 02:01:22;;;;;;;41.65;23.55;;;;;;;9.26;57.10;102358.41;5015867;28;98145;-69
2023/04/09 02:03:54;;;;;;;40.50;23.92;;;;;;;9.34;56.77;102359.25;5007719;28;98850;-71
2023/04/09 02:06:31;;;;;;;42.33;23.27;;;;;;;9.39;56.79;102348.66;5015256;28;97111;-70
2023/04/09 02:09:00;;;;;;;45.50;24.38;;;;;;;9.57;56.13;102354.75;5005180;28;96813;-70
2023/04/09 02:11:29;;;;;;;42.58;24.17;;;;;;;9.51;55.83;102360.06;5013533;28;98909;-71
2023/04/09 02:13:56;;;;;;;44.25;25.17;;;;;;;9.65;55.77;102362.59;5008173;28;98962;-70
2023/04/09 02:16:23;;;;;;;46.00;25.27;;;;;;;9.62;55.86;102364.38;5012426;28;97496;-69
2023/04/09 02:18:54;;;;;;;42.15;23.67;;;;;;;9.48;56.62;102357.44;5005459;28;98789;-70
2023/04/09 02:21:22;;;;;;;41.58;24.50;;;;;;;9.58;56.77;102363.53;5012472;28;99381;-70
2023/04/09 02:23:48;;;;;;;43.88;25.70;;;;;;;9.53;57.06;102354.75;5009773;28;99369;-70
2023/04/09 02:26:14;;;;;;;42.33;24.33;;;;;;;9.50;56.79;102360.06;5013377;28;97532;-71
2023/04/09 02:28:41;;;;;;;52.10;25.27;;;;;;;9.54;57.02;102356.50;5015604;28;98766;-69
2023/04/09 02:31:07;;;;;;;42.30;25.35;;;;;;;9.47;56.86;102354.78;5010978;28;101234;-69
2023/04/09 02:33:34;;;;;;;44.70;24.77;;;;;;;9.51;56.48;102357.44;5007890;28;98868;-70
2023/04/09 02:36:01;;;;;;;43.40;24.95;;;;;;;9.40;56.74;102358.34;5011908;28;96796;-71
2023/04/09 02:38:28;;;;;;;43.08;24.65;;;;;;;9.62;56.67;102360.00;5014534;28;97334;-69
2023/04/09 02:40:54;;;;;;;42.33;24.27;;;;;;;9.49;56.79;102353.03;5009972;28;99265;-70
2023/04/09 02:43:20;;;;;;;47.10;25.75;;;;;;;9.42;57.40;102362.75;5011309;28;101957;-70
2023/04/09 02:45:47;;;;;;;43.20;25.05;;;;;;;9.39;57.52;102360.09;5010079;28;99041;-71
2023/04/09 02:48:13;;;;;;;43.17;25.67;;;;;;;9.27;58.08;102360.16;5017639;28;96993;-69
2023/04/09 02:50:39;;;;;;;45.65;25.75;;;;;;;9.35;57.81;102357.50;5009945;28;99012;-70
2023/04/09 02:53:07;;;;;;;50.28;27.13;;;;;;;9.23;57.80;102349.66;5007277;28;98857;-70
2023/04/09 02:55:33;;;;;;;49.00;26.80;;;;;;;9.34;57.62;102351.34;5007560;28;99282;-70
2023/04/09 02:58:00;;;;;;;43.03;24.75;;;;;;;9.33;57.35;102357.50;5015857;28;97425;-71
2023/04/09 03:00:26;;;;;;;44.22;25.17;;;;;;;9.37;57.22;102355.72;4997942;28;99418;-70
2023/04/09 03:02:52;;;;;;;47.97;25.27;;;;;;;9.76;56.11;102346.69;5010589;28;99235;-70
2023/04/09 03:05:19;;;;;;;45.03;25.20;;;;;;;9.63;56.21;102353.81;5011034;28;96749;-71
2023/04/09 03:07:46;;;;;;;42.60;24.08;;;;;;;9.93;55.39;102356.25;5017176;28;97124;-70
2023/04/09 03:10:14;;;;;;;42.88;24.15;;;;;;;9.80;55.59;102353.69;5005575;28;99441;-70
2023/04/09 03:12:43;;;;;;;42.40;24.98;;;;;;;9.74;55.82;102346.72;5018282;27;98663;-70
2023/04/09 03:15:10;;;;;;;47.50;26.88;;;;;;;9.90;55.61;102345.72;5004218;28;96783;-70
2023/04/09 03:17:37;;;;;;;47.17;27.35;;;;;;;10.03;55.19;102350.91;5007416;28;97046;-70
2023/04/09 03:20:04;;;;;;;44.85;25.58;;;;;;;10.27;54.69;102345.44;5008716;28;97832;-72
2023/04/09 03:22:35;;;;;;;48.03;25.63;;;;;;;10.13;55.08;102345.53;5016447;28;98816;-71
2023/04/09 03:25:01;;;;;;;47.70;26.60;;;;;;;10.21;54.74;102346.38;5008290;28;97297;-70
2023/04/09 03:27:29;;;;;;;46.78;26.75;;;;;;;10.26;54.72;102343.69;5020295;28;98568;-70
2023/04/09 03:29:56;;;;;;;46.90;26.73;;;;;;;10.19;54.81;102345.50;5007968;28;99145;-70
2023/04/09 03:32:22;;;;;;;44.88;26.02;;;;;;;10.10;55.28;102336.78;5016057;28;98901;-71
2023/04/09 03:34:48;;;;;;;50.58;26.88;;;;;;;9.73;56.91;102346.72;5016545;28;98429;-70
2023/04/09 03:37:15;;;;;;;48.55;26.63;;;;;;;9.53;57.67;102342.44;5013360;28;96791;-70
2023/04/09 03:39:41;;;;;;;45.40;25.63;;;;;;;9.89;56.86;102354.53;5015788;28;97615;-70
2023/04/09 03:42:08;;;;;;;45.50;25.17;;;;;;;9.74;57.10;102340.53;5020782;28;98489;-71
2023/04/09 03:44:35;;;;;;;48.50;26.92;;;;;;;10.01;56.50;102340.34;5012817;28;98924;-70
2023/04/09 03:47:02;;;;;;;46.33;26.45;;;;;;;10.03;56.57;102348.28;5019522;28;98810;-70
2023/04/09 03:49:28;;;;;;;50.92;25.85;;;;;;;9.99;56.57;102343.00;5012395;28;102040;-71
2023/04/09 03:51:55;;;;;;;49.47;26.83;;;;;;;9.72;57.36;102340.56;5020984;28;98915;-70
2023/04/09 03:54:21;;;;;;;44.70;26.00;;;;;;;9.76;57.43;102342.31;5006687;28;98340;-71
2023/04/09 03:56:47;;;;;;;43.78;24.38;;;;;;;9.85;57.63;102346.63;5009154;28;96792;-70
2023/04/09 03:59:14;;;;;;;46.72;25.02;;;;;;;9.81;58.05;102343.13;5013612;28;99042;-70
2023/04/09 04:01:41;;;;;;;48.42;25.65;;;;;;;9.62;58.53;102346.78;5015942;28;99328;-69
2023/04/09 04:04:08;;;;;;;45.42;25.38;;;;;;;9.63;58.41;102345.03;5014570;28;96680;-71
2023/04/09 04:06:34;;;;;;;54.75;28.33;;;;;;;9.81;58.50;102345.78;5013896;28;97380;-71
2023/04/09 04:09:01;;;;;;;50.22;26.30;;;;;;;9.77;58.89;102345.81;5011899;28;98998;-70
2023/04/09 04:11:27;;;;;;;48.85;26.73;;;;;;;9.87;58.52;102344.84;5014606;28;99273;-71
2023/04/09 04:13:55;;;;;;;50.40;25.83;;;;;;;9.86;58.82;102348.38;5010126;28;97038;-71
2023/04/09 04:16:21;;;;;;;49.63;26.17;;;;;;;10.05;58.39;102351.75;5012019;28;97085;-71
2023/04/09 04:18:49;;;;;;;50.17;27.02;;;;;;;10.07;58.87;102349.97;5013355;28;97764;-70
2023/04/09 04:21:16;;;;;;;50.08;26.42;;;;;;;10.03;59.20;102358.84;5010773;28;99350;-70
2023/04/09 04:23:43;;;;;;;48.67;27.65;;;;;;;9.98;59.62;102358.84;5011119;28;96851;-71
2023/04/09 04:26:10;;;;;;;53.72;27.30;;;;;;;10.08;59.83;102357.03;5010614;28;97970;-70
2023/04/09 04:28:37;;;;;;;52.88;27.83;;;;;;;9.84;60.34;102356.34;5019859;28;100802;-70
2023/04/09 04:31:07;;;;;;;54.85;29.15;;;;;;;10.06;60.37;102357.03;4995607;28;99018;-70
2023/04/09 04:33:33;;;;;;;56.08;28.40;;;;;;;10.05;60.49;102363.19;5016406;28;96714;-70
2023/04/09 04:36:09;;;;;;;56.70;30.42;;;;;;;10.16;60.10;102355.22;5010198;28;97211;-70
2023/04/09 04:38:36;;;;;;;54.70;29.02;;;;;;;10.03;60.81;102359.72;5020395;28;99053;-70
2023/04/09 04:41:03;;;;;;;54.28;29.30;;;;;;;10.24;60.11;102366.63;5008009;28;99088;-70
2023/04/09 04:43:29;;;;;;;57.67;29.63;;;;;;;10.42;59.60;102366.47;5011481;28;97749;-70
2023/04/09 04:45:56;;;;;;;53.83;28.77;;;;;;;10.32;59.27;102364.78;5005656;28;98156;-70
2023/04/09 04:48:22;;;;;;;56.80;30.67;;;;;;;10.48;59.48;102365.53;5017392;28;99327;-71
2023/04/09 04:50:54;;;;;;;51.58;28.42;;;;;;;10.30;59.86;102372.72;5007277;28;99129;-69
2023/04/09 04:53:22;;;;;;;55.05;29.02;;;;;;;10.47;59.44;102364.63;5012666;28;97045;-70
2023/04/09 04:55:48;;;;;;;53.70;29.60;;;;;;;10.39;60.10;102367.34;5007391;28;97891;-70
2023/04/09 04:58:15;;;;;;;51.75;28.73;;;;;;;10.62;59.18;102366.25;5015470;28;98952;-70
2023/04/09 05:00:41;;;;;;;56.80;28.92;;;;;;;10.36;59.98;102369.16;5005231;28;99401;-70
2023/04/09 05:03:08;;;;;;;54.75;28.98;;;;;;;10.39;60.37;102377.91;5007901;28;96853;-70
2023/04/09 05:05:34;;;;;;;48.90;27.15;;;;;;;10.58;59.56;102381.25;5012949;28;97846;-70
2023/04/09 05:08:00;;;;;;;51.65;28.08;;;;;;;10.68;59.52;102377.66;5009779;28;98767;-70
2023/04/09 05:10:28;;;;;;;50.90;28.95;;;;;;;10.65;60.02;102380.31;5012561;28;98761;-71
2023/04/09 05:12:55;;;;;;;52.70;27.80;;;;;;;10.88;59.19;102376.56;5013792;28;96993;-72
2023/04/09 05:15:21;;;;;;;54.15;29.25;;;;;;;10.53;60.44;102379.56;5009248;28;97117;-70
2023/04/09 05:17:48;;;;;;;52.25;27.55;;;;;;;10.50;61.02;102383.09;5011602;28;99453;-70
2023/04/09 05:20:14;;;;;;;50.80;28.08;;;;;;;10.35;61.33;102378.84;5022015;28;99129;-70
2023/04/09 05:22:41;;;;;;;48.65;27.52;;;;;;;10.22;61.64;102390.41;5014869;28;97286;-70
2023/04/09 05:25:09;;;;;;;55.35;29.20;;;;;;;10.39;61.89;102379.69;5015933;28;97849;-70
2023/04/09 05:27:37;;;;;;;50.55;28.45;;;;;;;10.27;62.20;102387.72;5015304;28;98966;-70
2023/04/09 05:30:04;;;;;;;52.63;26.92;;;;;;;10.43;62.04;102389.34;5009374;28;100938;-70
2023/04/09 05:32:30;;;;;;;54.75;28.73;;;;;;;10.41;62.42;102385.84;5008586;28;96756;-70
2023/04/09 05:34:56;;;;;;;55.63;27.08;;;;;;;10.43;62.31;102384.06;5015034;28;96946;-70
2023/04/09 05:37:23;;;;;;;56.92;30.08;;;;;;;10.82;61.28;102392.50;5011347;28;99122;-71
2023/04/09 05:39:49;;;;;;;55.28;28.38;;;;;;;10.53;61.95;102388.38;5005842;28;99598;-71
2023/04/09 05:42:16;;;;;;;56.17;28.70;;;;;;;10.49;62.09;102391.06;5010691;28;96812;-71
2023/04/09 05:44:44;;;;;;;55.20;30.52;;;;;;;10.78;60.67;102391.63;5012915;28;98715;-70
2023/04/09 05:47:10;;;;;;;56.58;29.67;;;;;;;10.65;60.97;102390.88;4999574;28;98823;-70
2023/04/09 05:49:36;;;;;;;59.78;30.02;;;;;;;10.42;61.84;102394.66;5010288;28;102052;-71
2023/04/09 05:52:03;;;;;;;59.42;29.48;;;;;;;10.88;60.52;102393.31;5010000;28;96981;-71
2023/04/09 05:54:29;;;;;;;58.33;29.27;;;;;;;10.98;59.87;102400.25;5006651;28;97038;-71
2023/04/09 05:56:55;;;;;;;62.58;30.80;;;;;;;11.16;58.77;102394.72;5004579;28;98538;-72
2023/04/09 05:59:22;;;;;;;66.63;32.33;;;;;;;11.20;58.91;102392.94;5014048;28;98927;-71
2023/04/09 06:01:50;;;;;;;57.10;29.80;;;;;;;10.89;59.58;102394.19;5010105;28;96876;-73
2023/04/09 06:04:16;;;;;;;57.80;30.55;;;;;;;10.98;59.86;102396.72;5015805;28;97311;-72
2023/04/09 06:06:42;;;;;;;58.55;31.15;;;;;;;10.81;60.32;102409.25;5011699;28;97913;-71
2023/04/09 06:09:09;;;;;;;60.13;30.15;;;;;;;10.62;60.79;102408.56;5001855;28;99269;-72
2023/04/09 06:11:35;;;;;;;63.08;31.67;;;;;;;10.39;61.32;102398.19;5004153;28;99430;-71
2023/04/09 06:14:02;;;;;;;61.00;31.33;;;;;;;10.69;60.64;102397.91;5013494;28;97564;-70
2023/04/09 06:16:28;;;;;;;65.15;31.88;;;;;;;10.51;61.67;102398.06;5012195;28;98973;-71
2023/04/09 06:18:55;;;;;;;61.97;29.48;;;;;;;10.75;60.83;102391.69;5013916;27;100965;-71
2023/04/09 06:21:22;;;;;;;56.90;30.20;;;;;;;10.50;61.21;102400.75;5011208;28;97273;-70
2023/04/09 06:23:49;;;;;;;58.45;30.35;;;;;;;11.00;60.03;102390.53;5014428;28;97266;-70
2023/04/09 06:26:15;;;;;;;53.22;28.48;;;;;;;10.93;59.34;102394.13;5011327;28;100886;-70
2023/04/09 06:28:42;;;;;;;48.40;27.45;;;;;;;10.97;59.15;102395.84;5000016;28;100470;-71
2023/04/09 06:31:08;;;;;;;50.10;28.30;;;;;;;11.22;58.62;102390.28;5008423;28;97318;-70
2023/04/09 06:33:35;;;;;;;51.58;28.55;;;;;;;11.19;58.63;102394.72;5015534;28;97032;-70
2023/04/09 06:36:02;;;;;;;46.78;27.15;;;;;;;11.21;58.58;102397.34;5003208;28;100060;-71
2023/04/09 06:38:29;;;;;;;43.42;25.98;;;;;;;11.71;57.34;102395.81;5015463;28;98795;-71
2023/04/09 06:40:56;;;;;;;47.47;26.55;;;;;;;11.83;56.64;102391.22;5008633;28;97074;-70
2023/04/09 06:43:22;;;;;;;50.08;27.25;;;;;;;11.56;56.80;102399.53;5012780;28;97226;-70
2023/04/09 06:45:49;;;;;;;43.45;26.40;;;;;;;11.27;58.08;102394.63;5009732;28;97722;-71
2023/04/09 06:48:16;;;;;;;45.90;26.67;;;;;;;12.01;56.33;102400.69;5012868;28;98920;-71
2023/04/09 06:50:42;;;;;;;49.08;26.05;;;;;;;12.28;55.03;102402.88;5017070;28;96778;-69
2023/04/09 06:53:10;;;;;;;46.90;27.15;;;;;;;12.18;55.03;102406.59;5014416;28;98490;-71
2023/04/09 06:55:36;;;;;;;47.03;25.63;;;;;;;12.62;54.12;102404.97;5009164;28;98974;-70
2023/04/09 06:58:02;;;;;;;46.03;25.92;;;;;;;12.83;53.50;102409.91;5009755;28;98963;-70
2023/04/09 07:00:29;;;;;;;43.85;26.98;;;;;;;12.67;53.58;102406.63;5012752;28;97183;-70
2023/04/09 07:02:55;;;;;;;54.30;28.77;;;;;;;12.34;54.14;102417.81;5011525;28;97112;-69
2023/04/09 07:05:22;;;;;;;45.53;26.25;;;;;;;12.04;54.95;102413.00;5015233;28;98741;-71
2023/04/09 07:07:49;;;;;;;43.55;25.73;;;;;;;11.94;55.55;102420.22;5011860;28;99264;-70
2023/04/09 07:10:17;;;;;;;42.33;24.65;;;;;;;11.88;55.66;102417.69;5007595;28;97419;-70
2023/04/09 07:12:43;;;;;;;45.35;27.13;;;;;;;12.20;55.45;102419.84;5013988;27;96785;-70
2023/04/09 07:15:10;;;;;;;47.65;26.67;;;;;;;12.57;54.60;102414.78;5009968;28;99435;-71
2023/04/09 07:17:36;;;;;;;48.50;26.77;;;;;;;12.45;54.82;102422.97;5007305;28;97514;-70
2023/04/09 07:20:03;;;;;;;45.72;26.40;;;;;;;12.56;54.37;102410.38;5016343;28;97370;-70
2023/04/09 07:22:30;;;;;;;44.80;26.77;;;;;;;12.62;54.32;102420.88;5016674;28;96891;-72
2023/04/09 07:24:56;;;;;;;45.15;27.17;;;;;;;12.13;55.13;102420.81;5011241;28;99268;-71
2023/04/09 07:27:26;;;;;;;51.00;28.52;;;;;;;12.05;55.61;102423.59;5013060;28;99144;-71
2023/04/09 07:29:55;;;;;;;48.92;28.15;;;;;;;12.06;55.75;102421.81;5008498;28;97159;-70
2023/04/09 07:32:21;;;;;;;51.10;27.80;;;;;;;12.41;55.30;102418.59;5009653;28;96934;-72
2023/04/09 07:34:47;;;;;;;50.97;29.58;;;;;;;12.56;54.99;102423.63;5002591;28;99389;-72
2023/04/09 07:37:14;;;;;;;50.42;28.10;;;;;;;12.78;54.35;102428.56;5009137;28;98745;-71
2023/04/09 07:39:41;;;;;;;51.95;27.67;;;;;;;12.85;53.79;102424.00;5008280;28;97300;-70
2023/04/09 07:42:07;;;;;;;42.58;25.08;;;;;;;12.64;54.11;102422.63;5012852;28;97065;-71
2023/04/09 07:44:36;;;;;;;46.45;27.38;;;;;;;12.58;54.39;102432.47;5008888;28;97777;-70
2023/04/09 07:47:02;;;;;;;48.03;26.98;;;;;;;12.47;54.90;102426.47;5010225;28;99218;-71
2023/04/09 07:49:29;;;;;;;49.15;28.15;;;;;;;12.28;55.57;102424.09;5011224;28;97464;-70
2023/04/09 07:51:56;;;;;;;46.20;27.13;;;;;;;12.58;54.94;102428.03;5011122;28;98049;-72
2023/04/09 07:54:22;;;;;;;45.78;27.90;;;;;;;12.57;54.93;102422.75;5009928;28;99312;-72
2023/04/09 07:56:49;;;;;;;45.03;26.77;;;;;;;12.68;54.50;102431.38;5011403;28;98972;-70
2023/04/09 07:59:16;;;;;;;43.13;25.40;;;;;;;12.44;54.29;102432.69;5010518;28;96846;-71
2023/04/09 08:01:44;;;;;;;38.75;24.00;;;;;;;12.78;53.70;102427.69;5011967;28;96918;-70
2023/04/09 08:04:11;;;;;;;41.60;25.63;;;;;;;12.70;53.74;102426.94;5005536;28;101978;-72
2023/04/09 08:06:38;;;;;;;42.92;24.70;;;;;;;12.71;53.77;102426.03;5011451;28;98796;-74
2023/04/09 08:09:05;;;;;;;42.10;25.35;;;;;;;12.69;54.23;102428.72;5011872;28;96762;-72
2023/04/09 08:11:31;;;;;;;43.35;25.65;;;;;;;12.68;53.85;102437.56;5009405;28;98385;-74
2023/04/09 08:14:00;;;;;;;44.10;25.60;;;;;;;12.45;54.85;102436.22;5010400;28;97626;-73
2023/04/09 08:16:27;;;;;;;39.67;25.15;;;;;;;13.23;53.21;102433.06;5012545;28;98980;-73
2023/04/09 08:18:55;;;;;;;43.80;26.10;;;;;;;13.29;51.99;102433.81;5012070;28;97043;-73
2023/04/09 08:21:22;;;;;;;45.80;27.60;;;;;;;13.44;51.65;102435.28;5010306;28;97355;-73
2023/04/09 08:23:48;;;;;;;43.95;27.08;;;;;;;13.81;50.85;102438.88;5007652;28;99001;-72
2023/04/09 08:26:14;;;;;;;48.90;28.20;;;;;;;13.77;50.86;102445.19;5013475;28;100510;-72
2023/04/09 08:28:41;;;;;;;45.38;27.42;;;;;;;13.71;50.75;102439.13;5016806;28;97188;-73
2023/04/09 08:31:09;;;;;;;40.33;26.02;;;;;;;13.87;50.08;102443.19;5011310;28;96993;-73
2023/04/09 08:33:35;;;;;;;42.15;25.38;;;;;;;14.03;50.54;102449.91;5010497;28;99149;-73
2023/04/09 08:36:08;;;;;;;46.25;27.45;;;;;;;14.26;49.92;102446.72;5011202;28;101186;-73
2023/04/09 08:38:34;;;;;;;45.75;26.95;;;;;;;13.94;50.07;102450.13;5011931;28;96840;-72
2023/04/09 08:41:00;;;;;;;48.83;28.08;;;;;;;14.13;50.28;102439.94;5005872;28;97195;-72
2023/04/09 08:43:28;;;;;;;44.08;27.33;;;;;;;14.14;50.19;102453.19;5010209;28;99092;-72
2023/04/09 08:45:56;;;;;;;46.42;27.17;;;;;;;14.31;49.23;102451.00;5010390;28;98853;-73
2023/04/09 08:48:24;;;;;;;49.08;29.73;;;;;;;14.29;49.22;102451.97;5010997;28;96939;-73
2023/04/09 08:50:51;;;;;;;45.72;28.15;;;;;;;14.52;48.96;102452.28;5000833;28;98122;-73
2023/04/09 08:53:21;;;;;;;42.85;27.58;;;;;;;14.66;48.57;102451.94;5008108;28;99181;-73
2023/04/09 08:55:48;;;;;;;45.55;28.17;;;;;;;14.74;47.89;102450.84;5008022;28;101810;-73
2023/04/09 08:58:14;;;;;;;42.47;26.85;;;;;;;14.57;48.54;102442.41;5011684;28;96879;-73
2023/04/09 09:00:41;;;;;;;43.67;26.45;;;;;;;14.04;49.99;102441.03;5010949;28;96877;-73
2023/04/09 09:03:09;;;;;;;45.03;27.30;;;;;;;14.39;49.40;102440.22;5002291;28;99312;-72
2023/04/09 09:05:36;;;;;;;45.95;28.15;;;;;;;14.45;49.41;102442.72;5015379;28;102147;-73
2023/04/09 09:08:03;;;;;;;46.58;27.77;;;;;;;14.94;48.11;102433.47;5013313;28;97091;-72
2023/04/09 09:10:38;;;;;;;44.95;27.23;;;;;;;15.28;47.16;102433.44;5010644;28;96964;-73
2023/04/09 09:13:17;;;;;;;46.83;26.40;;;;;;;15.24;47.20;102434.41;5005040;28;99430;-73
2023/04/09 09:15:45;;;;;;;44.40;27.10;;;;;;;15.27;47.01;102437.00;5007484;28;99361;-74
2023/04/09 09:18:11;;;;;;;43.75;26.83;;;;;;;15.07;47.68;102443.75;5002047;28;98912;-72
2023/04/09 09:20:38;;;;;;;42.83;26.42;;;;;;;15.05;47.57;102434.06;5016228;28;96750;-74
2023/04/09 09:23:04;;;;;;;45.17;27.33;;;;;;;14.77;48.77;102435.72;5001902;28;99037;-74
2023/04/09 09:25:37;;;;;;;45.70;26.90;;;;;;;14.95;47.91;102440.56;5011987;28;98868;-73
2023/04/09 09:28:08;;;;;;;44.38;27.30;;;;;;;15.22;47.39;102433.59;5004978;28;97413;-74
2023/04/09 09:30:37;;;;;;;41.17;26.13;;;;;;;15.27;47.06;102437.88;5019606;28;96905;-74
2023/04/09 09:33:06;;;;;;;43.88;25.33;;;;;;;15.15;46.70;102432.91;4999744;28;97941;-73
2023/04/09 09:35:47;;;;;;;39.92;24.83;;;;;;;15.33;46.56;102432.38;5012667;28;100237;-73
2023/04/09 09:38:14;;;;;;;40.42;25.83;;;;;;;15.67;46.17;102434.09;5005124;28;98076;-73
2023/04/09 09:40:41;;;;;;;37.60;24.75;;;;;;;15.39;46.48;102434.00;5011458;28;97211;-74
2023/04/09 09:43:09;;;;;;;38.28;24.48;;;;;;;15.80;45.92;102433.69;5005084;28;99541;-73
2023/04/09 09:45:37;;;;;;;39.92;24.65;;;;;;;15.27;46.64;102424.56;5007860;28;98837;-72
2023/04/09 09:48:04;;;;;;;41.13;25.80;;;;;;;15.92;45.56;102427.97;5010897;28;97421;-74
2023/04/09 09:50:31;;;;;;;37.67;24.77;;;;;;;16.00;45.19;102427.72;5010609;28;97241;-72
2023/04/09 09:53:03;;;;;;;41.00;25.00;;;;;;;15.92;45.26;102424.41;5009366;28;98973;-72
2023/04/09 09:55:31;;;;;;;38.17;24.23;;;;;;;15.34;46.54;102419.94;5004987;28;98880;-72
2023/04/09 09:58:01;;;;;;;37.10;23.30;;;;;;;15.31;46.91;102423.53;5012793;28;97021;-72
2023/04/09 10:00:31;;;;;;;40.63;26.33;;;;;;;15.67;45.72;102418.09;5017715;28;96857;-73
2023/04/09 10:03:07;;;;;;;35.38;23.35;;;;;;;15.00;47.37;102415.56;5015072;28;100593;-73
2023/04/09 10:05:35;;;;;;;37.57;23.20;;;;;;;15.15;47.50;102408.94;5013114;28;98025;-72
2023/04/09 10:08:05;;;;;;;39.33;24.40;;;;;;;15.27;46.84;102410.38;5008494;28;97470;-73
2023/04/09 10:10:42;;;;;;;40.80;24.25;;;;;;;15.66;46.18;102416.34;5016308;28;96952;-72
2023/04/09 10:13:17;;;;;;;43.35;24.52;;;;;;;15.10;46.88;102408.16;5008566;28;100050;-74
2023/04/09 10:15:45;;;;;;;41.60;24.52;;;;;;;15.26;46.83;102411.28;5009360;28;98854;-72
2023/04/09 10:18:15;;;;;;;41.63;25.48;;;;;;;15.28;46.99;102401.47;5008533;28;96846;-72
2023/04/09 10:20:48;;;;;;;39.47;25.42;;;;;;;15.67;46.77;102407.44;5015493;28;97403;-73
2023/04/09 10:23:21;;;;;;;37.65;23.55;;;;;;;16.07;45.62;102409.75;5016487;28;102137;-73
2023/04/09 10:25:48;;;;;;;36.50;23.15;;;;;;;16.13;45.51;102402.41;5009666;28;98808;-72
2023/04/09 10:28:17;;;;;;;36.65;23.10;;;;;;;16.04;45.58;102402.69;5014779;28;97042;-73
2023/04/09 10:30:45;;;;;;;35.10;22.77;;;;;;;16.25;45.31;102399.34;5011870;28;97171;-72
2023/04/09 10:33:12;;;;;;;35.70;22.88;;;;;;;15.85;45.57;102404.22;5004739;28;99312;-72
2023/04/09 10:35:39;;;;;;;34.75;22.63;;;;;;;15.36;47.16;102413.63;4999231;28;99080;-73
2023/04/09 10:38:08;;;;;;;36.05;22.95;;;;;;;15.53;47.19;102411.41;5007090;28;96799;-73
2023/04/09 10:40:35;;;;;;;38.28;23.50;;;;;;;15.79;46.41;102407.06;5017038;28;97040;-73
2023/04/09 10:43:04;;;;;;;36.47;22.23;;;;;;;15.95;46.05;102413.66;5012304;28;99741;-73
2023/04/09 10:45:40;;;;;;;41.17;25.40;;;;;;;16.51;44.79;102403.81;5007834;28;101625;-73
2023/04/09 10:48:12;;;;;;;39.00;24.02;;;;;;;16.48;44.75;102408.34;5009872;28;97132;-73
2023/04/09 10:50:39;;;;;;;37.17;22.63;;;;;;;16.37;44.84;102399.84;5009914;28;97073;-73
2023/04/09 10:53:06;;;;;;;37.53;22.42;;;;;;;16.22;45.52;102404.75;5000862;28;100824;-73
2023/04/09 10:55:36;;;;;;;34.78;21.95;;;;;;;15.80;45.69;102398.16;5007328;28;98833;-74
2023/04/09 10:58:03;;;;;;;34.20;22.45;;;;;;;15.76;46.76;102405.34;5008620;28;97923;-73
2023/04/09 11:00:29;;;;;;;38.25;22.95;;;;;;;16.10;46.12;102402.50;5005974;28;96950;-73
2023/04/09 11:03:20;;;;;;;38.67;24.73;;;;;;;16.55;45.04;102399.22;5009357;28;100498;-74
2023/04/09 11:05:56;;;;;;;41.85;23.92;;;;;;;16.30;45.01;102400.06;5002565;28;98783;-73
2023/04/09 11:08:22;;;;;;;35.27;23.40;;;;;;;16.02;45.77;102404.53;5006231;28;96851;-72
2023/04/09 11:10:49;;;;;;;39.30;23.50;;;;;;;15.47;47.14;102400.88;5008980;28;97592;-72
2023/04/09 11:13:18;;;;;;;36.38;22.05;;;;;;;15.15;47.92;102387.63;5008314;28;99171;-72